createdAt,value
2022-10-19T00:01:41.031Z,102631.78
2022-10-19T00:04:10.599Z,102628.28
2022-10-19T00:06:43.348Z,102630.84
2022-10-19T00:09:16.415Z,102629.06
2022-10-19T00:11:52.381Z,102631.66
2022-10-19T00:14:25.354Z,102623.84
2022-10-19T00:16:53.539Z,102619.47
2022-10-19T00:19:26.314Z,102619.44
2022-10-19T00:21:58.099Z,102620.25
2022-10-19T00:24:28.343Z,102621.13
2022-10-19T00:26:56.968Z,102619.38
2022-10-19T00:29:23.811Z,102611.59
2022-10-19T00:31:51.467Z,102614.16
2022-10-19T00:34:18.510Z,102610.75
2022-10-19T00:36:46.029Z,102613.34
2022-10-19T00:39:15.139Z,102615.88
2022-10-19T00:41:43.110Z,102613.25
2022-10-19T00:44:12.701Z,102618.38
2022-10-19T00:46:42.311Z,102613.09
2022-10-19T00:49:24.817Z,102618.25
2022-10-19T00:51:54.919Z,102614.72
2022-10-19T00:54:22.599Z,102617.25
2022-10-19T00:56:52.180Z,102617.25
2022-10-19T00:59:43.940Z,102612.84
2022-10-19T01:02:13.846Z,102611.13
2022-10-19T01:04:59.641Z,102612.78
2022-10-19T01:07:30.367Z,102612.78
2022-10-19T01:10:00.915Z,102612.78
2022-10-19T01:12:39.945Z,102611.88
2022-10-19T01:15:22.309Z,102604.00
2022-10-19T01:18:14.126Z,102604.88
2022-10-19T01:20:53.100Z,102599.66
2022-10-19T01:23:57.240Z,102603.91
2022-10-19T01:29:52.653Z,102605.53
2022-10-19T01:32:32.905Z,102596.03
2022-10-19T01:35:07.298Z,102597.66
2022-10-19T01:37:42.113Z,102601.91
2022-10-19T01:41:01.776Z,102601.84
2022-10-19T01:43:31.363Z,102598.31
2022-10-19T01:46:11.632Z,102590.47
2022-10-19T01:48:50.973Z,102589.56
2022-10-19T01:51:23.150Z,102588.69
2022-10-19T01:53:57.308Z,102579.22
2022-10-19T01:56:27.806Z,102579.28
2022-10-19T01:58:58.164Z,102574.97
2022-10-19T02:01:28.707Z,102567.22
2022-10-19T02:03:57.406Z,102566.34
2022-10-19T02:06:24.200Z,102569.88
2022-10-19T02:08:53.567Z,102574.97
2022-10-19T02:11:22.218Z,102574.88
2022-10-19T02:13:54.738Z,102573.09
2022-10-19T02:16:27.538Z,102576.47
2022-10-19T02:18:56.529Z,102572.09
2022-10-19T02:21:29.813Z,102572.00
2022-10-19T02:24:02.243Z,102571.94
2022-10-19T02:26:29.526Z,102573.59
2022-10-19T02:29:00.740Z,102567.47
2022-10-19T02:31:29.952Z,102557.94
2022-10-19T02:34:05.120Z,102557.88
2022-10-19T02:36:33.649Z,102560.41
2022-10-19T02:39:02.371Z,102555.19
2022-10-19T02:41:55.867Z,102554.25
2022-10-19T02:44:54.077Z,102551.59
2022-10-19T02:48:08.035Z,102546.44
2022-10-19T02:50:40.538Z,102541.22
2022-10-19T02:53:10.064Z,102548.06
2022-10-19T02:58:08.040Z,102539.38
2022-10-19T03:00:39.990Z,102537.66
2022-10-19T03:03:12.166Z,102531.56
2022-10-19T03:05:40.894Z,102532.44
2022-10-19T03:08:13.309Z,102526.34
2022-10-19T03:10:40.177Z,102527.22
2022-10-19T03:13:08.790Z,102532.38
2022-10-19T03:15:36.900Z,102528.88
2022-10-19T03:18:05.520Z,102528.88
2022-10-19T03:20:35.853Z,102534.03
2022-10-19T03:23:02.709Z,102520.06
2022-10-19T03:25:29.570Z,102529.59
2022-10-19T03:28:01.680Z,102533.88
2022-10-19T03:30:32.786Z,102536.41
2022-10-19T03:33:11.129Z,102533.81
2022-10-19T03:35:39.773Z,102534.56
2022-10-19T03:38:06.608Z,102540.56
2022-10-19T03:40:39.618Z,102543.88
2022-10-19T03:43:09.765Z,102543.88
2022-10-19T03:45:36.600Z,102542.09
2022-10-19T03:48:10.181Z,102547.19
2022-10-19T03:50:38.946Z,102556.63
2022-10-19T03:53:05.822Z,102562.59
2022-10-19T03:55:35.181Z,102565.06
2022-10-19T03:58:03.240Z,102549.41
2022-10-19T04:00:31.715Z,102552.00
2022-10-19T04:02:58.580Z,102565.88
2022-10-19T04:05:30.270Z,102562.34
2022-10-19T04:07:58.982Z,102554.56
2022-10-19T04:10:25.817Z,102558.78
2022-10-19T04:12:53.878Z,102559.63
2022-10-19T04:15:26.023Z,102555.28
2022-10-19T04:17:55.973Z,102558.66
2022-10-19T04:20:28.325Z,102558.56
2022-10-19T04:22:58.236Z,102558.53
2022-10-19T04:25:28.955Z,102563.59
2022-10-19T04:28:06.310Z,102558.38
2022-10-19T04:30:33.589Z,102561.78
2022-10-19T04:33:00.447Z,102551.41
2022-10-19T04:35:27.438Z,102564.31
2022-10-19T04:37:54.292Z,102559.91
2022-10-19T04:40:23.215Z,102562.50
2022-10-19T04:42:50.087Z,102564.22
2022-10-19T04:45:17.103Z,102557.28
2022-10-19T04:47:43.866Z,102551.19
2022-10-19T04:50:10.713Z,102552.84
2022-10-19T04:52:37.647Z,102546.84
2022-10-19T04:55:05.023Z,102542.53
2022-10-19T04:57:32.224Z,102545.03
2022-10-19T04:59:59.281Z,102532.91
2022-10-19T05:02:26.055Z,102543.25
2022-10-19T05:04:53.462Z,102545.81
2022-10-19T05:07:20.322Z,102540.59
2022-10-19T05:09:47.243Z,102542.28
2022-10-19T05:12:14.071Z,102540.50
2022-10-19T05:14:42.889Z,102536.06
2022-10-19T05:17:10.023Z,102534.41
2022-10-19T05:19:36.891Z,102540.34
2022-10-19T05:22:03.835Z,102535.19
2022-10-19T05:24:32.590Z,102536.00
2022-10-19T05:26:59.469Z,102530.78
2022-10-19T05:29:26.431Z,102528.91
2022-10-19T05:31:53.364Z,102533.16
2022-10-19T05:34:20.263Z,102532.28
2022-10-19T05:36:47.197Z,102541.78
2022-10-19T05:39:18.050Z,102529.63
2022-10-19T05:41:46.684Z,102521.84
2022-10-19T05:44:18.752Z,102523.63
2022-10-19T05:46:46.479Z,102534.75
2022-10-19T05:49:14.616Z,102531.25
2022-10-19T05:51:42.003Z,102517.41
2022-10-19T05:54:09.815Z,102523.47
2022-10-19T05:56:37.263Z,102530.25
2022-10-19T05:59:06.114Z,102517.28
2022-10-19T06:01:33.496Z,102525.94
2022-10-19T06:04:02.830Z,102523.28
2022-10-19T06:06:30.964Z,102530.19
2022-10-19T06:08:59.057Z,102526.66
2022-10-19T06:11:35.191Z,102514.56
2022-10-19T06:14:04.604Z,102519.78
2022-10-19T06:16:32.354Z,102515.50
2022-10-19T06:19:00.014Z,102519.81
2022-10-19T06:21:30.798Z,102525.88
2022-10-19T06:24:00.757Z,102526.72
2022-10-19T06:26:28.587Z,102518.16
2022-10-19T06:29:00.678Z,102524.97
2022-10-19T06:31:29.555Z,102525.00
2022-10-19T06:33:56.634Z,102521.50
2022-10-19T06:36:28.785Z,102531.09
2022-10-19T06:38:56.703Z,102532.84
2022-10-19T06:41:23.700Z,102526.81
2022-10-19T06:43:54.971Z,102522.44
2022-10-19T06:46:24.639Z,102527.63
2022-10-19T06:48:55.439Z,102529.31
2022-10-19T06:51:23.254Z,102529.38
2022-10-19T06:53:54.211Z,102521.56
2022-10-19T06:56:24.793Z,102526.81
2022-10-19T06:58:51.919Z,102523.47
2022-10-19T07:01:19.224Z,102525.19
2022-10-19T07:03:46.243Z,102505.41
2022-10-19T07:06:14.102Z,102519.22
2022-10-19T07:08:42.447Z,102512.38
2022-10-19T07:11:16.147Z,102519.31
2022-10-19T07:13:43.343Z,102525.34
2022-10-19T07:16:16.063Z,102526.28
2022-10-19T07:18:47.489Z,102523.69
2022-10-19T07:21:16.127Z,102537.63
2022-10-19T07:23:44.685Z,102544.53
2022-10-19T07:26:23.240Z,102542.91
2022-10-19T07:28:50.717Z,102530.81
2022-10-19T07:31:20.640Z,102541.34
2022-10-19T07:33:52.334Z,102539.66
2022-10-19T07:36:19.634Z,102547.53
2022-10-19T07:38:46.556Z,102545.75
2022-10-19T07:41:16.702Z,102554.56
2022-10-19T07:43:45.200Z,102545.19
2022-10-19T07:46:17.587Z,102548.66
2022-10-19T07:48:45.097Z,102539.31
2022-10-19T07:51:14.413Z,102540.31
2022-10-19T07:53:41.759Z,102532.69
2022-10-19T07:56:14.418Z,102536.25
2022-10-19T07:58:41.673Z,102535.47
2022-10-19T08:01:12.370Z,102540.75
2022-10-19T08:06:26.538Z,102532.41
2022-10-19T08:08:54.515Z,102524.75
2022-10-19T08:11:34.190Z,102529.25
2022-10-19T08:14:04.784Z,102524.19
2022-10-19T08:16:40.626Z,102526.09
2022-10-19T08:19:12.781Z,102511.59
2022-10-19T08:21:41.791Z,102510.94
2022-10-19T08:24:10.145Z,102504.19
2022-10-19T08:26:38.997Z,102506.06
2022-10-19T08:29:12.531Z,102520.03
2022-10-19T08:31:40.452Z,102517.63
2022-10-19T08:34:07.323Z,102517.72
2022-10-19T08:36:35.696Z,102517.06
2022-10-19T08:39:05.037Z,102515.47
2022-10-19T08:41:41.313Z,102516.50
2022-10-19T08:44:20.315Z,102505.41
2022-10-19T08:47:35.042Z,102498.72
2022-10-19T08:50:03.595Z,102497.13
2022-10-19T08:52:34.817Z,102484.28
2022-10-19T08:55:09.154Z,102487.06
2022-10-19T08:57:55.881Z,102482.91
2022-10-19T09:00:43.348Z,102483.00
2022-10-19T09:03:55.518Z,102476.28
2022-10-19T09:06:45.073Z,102465.16
2022-10-19T09:09:16.872Z,102466.97
2022-10-19T09:11:49.978Z,102459.28
2022-10-19T09:14:26.000Z,102461.13
2022-10-19T09:17:02.477Z,102443.09
2022-10-19T09:19:31.940Z,102452.69
2022-10-19T09:22:07.770Z,102449.38
2022-10-19T09:24:41.573Z,102447.69
2022-10-19T09:27:20.805Z,102448.66
2022-10-19T09:29:57.478Z,102443.53
2022-10-19T09:32:33.554Z,102442.75
2022-10-19T09:35:04.058Z,102456.66
2022-10-19T09:37:32.897Z,102448.06
2022-10-19T09:39:59.841Z,102442.97
2022-10-19T09:42:33.647Z,102443.00
2022-10-19T09:45:11.740Z,102444.81
2022-10-19T09:47:40.517Z,102433.66
2022-10-19T09:50:16.318Z,102437.16
2022-10-19T09:52:48.834Z,102432.94
2022-10-19T09:55:23.746Z,102436.44
2022-10-19T09:57:59.623Z,102424.38
2022-10-19T10:00:37.368Z,102425.31
2022-10-19T10:03:06.173Z,102420.13
2022-10-19T10:05:39.607Z,102415.00
2022-10-19T10:08:15.568Z,102423.75
2022-10-19T10:11:07.098Z,102421.19
2022-10-19T10:13:40.418Z,102422.09
2022-10-19T10:16:10.161Z,102424.69
2022-10-19T10:19:00.345Z,102415.19
2022-10-19T10:21:45.982Z,102426.47
2022-10-19T10:24:12.843Z,102424.78
2022-10-19T10:26:42.718Z,102410.94
2022-10-19T10:29:27.892Z,102420.47
2022-10-19T10:32:24.922Z,102422.25
2022-10-19T10:35:07.144Z,102406.69
2022-10-19T10:37:41.767Z,102400.63
2022-10-19T10:40:23.262Z,102387.66
2022-10-19T10:42:53.650Z,102396.31
2022-10-19T10:45:26.198Z,102388.56
2022-10-19T10:47:53.892Z,102392.88
2022-10-19T10:50:27.950Z,102389.44
2022-10-19T10:53:03.603Z,102390.28
2022-10-19T10:55:31.788Z,102390.31
2022-10-19T10:58:31.015Z,102388.56
2022-10-19T11:01:06.612Z,102382.53
2022-10-19T11:03:37.982Z,102373.03
2022-10-19T11:06:05.048Z,102356.59
2022-10-19T11:08:49.435Z,102356.56
2022-10-19T11:11:48.972Z,102355.75
2022-10-19T11:14:43.977Z,102348.81
2022-10-19T11:17:28.141Z,102339.28
2022-10-19T11:19:55.247Z,102340.13
2022-10-19T11:22:45.450Z,102334.09
2022-10-19T11:25:32.556Z,102328.03
2022-10-19T11:28:15.523Z,102320.22
2022-10-19T11:31:21.214Z,102321.94
2022-10-19T11:34:00.402Z,102311.53
2022-10-19T11:36:56.457Z,102315.84
2022-10-19T11:39:54.373Z,102323.63
2022-10-19T11:42:24.338Z,102308.03
2022-10-19T11:45:23.433Z,102307.16
2022-10-19T11:48:12.252Z,102298.47
2022-10-19T11:50:54.331Z,102300.19
2022-10-19T11:53:33.361Z,102295.84
2022-10-19T11:56:08.308Z,102295.84
2022-10-19T11:58:44.397Z,102289.78
2022-10-19T12:01:40.260Z,102288.00
2022-10-19T12:04:25.638Z,102289.72
2022-10-19T12:07:10.041Z,102264.56
2022-10-19T12:10:03.084Z,102268.88
2022-10-19T12:12:36.116Z,102269.72
2022-10-19T12:15:11.914Z,102259.28
2022-10-19T12:17:43.454Z,102259.25
2022-10-19T12:20:29.742Z,102250.59
2022-10-19T12:22:59.681Z,102238.41
2022-10-19T12:25:27.773Z,102234.97
2022-10-19T12:27:55.403Z,102241.00
2022-10-19T12:30:24.052Z,102234.03
2022-10-19T12:33:22.829Z,102223.59
2022-10-19T12:36:09.238Z,102224.38
2022-10-19T12:38:47.934Z,102218.28
2022-10-19T12:41:37.831Z,102204.38
2022-10-19T12:44:35.547Z,102202.59
2022-10-19T12:47:17.818Z,102201.69
2022-10-19T12:49:57.735Z,102192.97
2022-10-19T12:52:38.324Z,102184.28
2022-10-19T12:55:24.547Z,102189.44
2022-10-19T12:58:21.506Z,102188.50
2022-10-19T13:01:00.675Z,102182.41
2022-10-19T13:03:34.500Z,102181.53
2022-10-19T13:06:13.097Z,102173.69
2022-10-19T13:08:46.641Z,102164.97
2022-10-19T13:11:15.649Z,102152.81
2022-10-19T13:13:54.095Z,102158.00
2022-10-19T13:16:30.145Z,102151.84
2022-10-19T13:19:00.265Z,102137.97
2022-10-19T13:21:54.666Z,102142.25
2022-10-19T13:24:24.539Z,102139.63
2022-10-19T13:27:03.537Z,102141.34
2022-10-19T13:29:39.631Z,102130.91
2022-10-19T13:32:31.553Z,102127.41
2022-10-19T13:35:30.915Z,102123.06
2022-10-19T13:38:12.814Z,102127.41
2022-10-19T13:40:48.761Z,102125.66
2022-10-19T13:43:44.754Z,102127.38
2022-10-19T13:46:30.112Z,102119.56
2022-10-19T13:49:15.954Z,102119.66
2022-10-19T13:52:00.972Z,102121.31
2022-10-19T13:54:50.496Z,102119.56
2022-10-19T13:57:43.417Z,102111.72
2022-10-19T14:00:35.934Z,102111.75
2022-10-19T14:03:11.637Z,102095.28
2022-10-19T14:05:47.605Z,102101.28
2022-10-19T14:08:26.788Z,102103.03
2022-10-19T14:11:03.922Z,102097.88
2022-10-19T14:13:31.511Z,102098.75
2022-10-19T14:16:01.512Z,102096.97
2022-10-19T14:18:36.536Z,102101.31
2022-10-19T14:21:09.357Z,102096.06
2022-10-19T14:23:41.792Z,102083.94
2022-10-19T14:26:16.776Z,102084.81
2022-10-19T14:28:43.824Z,102087.44
2022-10-19T14:31:20.085Z,102083.13
2022-10-19T14:33:50.625Z,102089.19
2022-10-19T14:36:23.393Z,102075.31
2022-10-19T14:38:54.962Z,102075.31
2022-10-19T14:41:27.963Z,102082.28
2022-10-19T14:43:56.441Z,102069.25
2022-10-19T14:46:31.828Z,102064.97
2022-10-19T14:49:05.835Z,102071.00
2022-10-19T14:51:50.288Z,102061.50
2022-10-19T14:54:32.659Z,102058.91
2022-10-19T14:57:07.343Z,102070.19
2022-10-19T15:00:00.561Z,102071.94
2022-10-19T15:02:37.274Z,102056.38
2022-10-19T15:05:06.454Z,102052.84
2022-10-19T15:07:39.656Z,102038.16
2022-10-19T15:10:16.944Z,102052.88
2022-10-19T15:12:45.204Z,102039.00
2022-10-19T15:15:24.290Z,102037.25
2022-10-19T15:18:05.274Z,102039.84
2022-10-19T15:20:49.611Z,102036.41
2022-10-19T15:23:42.427Z,102027.75
2022-10-19T15:26:24.793Z,102023.41
2022-10-19T15:28:54.900Z,102020.84
2022-10-19T15:31:26.619Z,102025.19
2022-10-19T15:33:59.579Z,102026.91
2022-10-19T15:36:28.620Z,102017.34
2022-10-19T15:39:06.247Z,102019.94
2022-10-19T15:41:45.590Z,102006.94
2022-10-19T15:44:33.868Z,102003.44
2022-10-19T15:47:27.397Z,102007.75
2022-10-19T15:50:00.107Z,102006.03
2022-10-19T15:52:33.279Z,102004.31
2022-10-19T15:55:01.194Z,101993.06
2022-10-19T15:57:37.353Z,101995.66
2022-10-19T16:00:13.334Z,101995.69
2022-10-19T16:02:40.925Z,101987.03
2022-10-19T16:05:08.295Z,101984.47
2022-10-19T16:07:38.570Z,101984.47
2022-10-19T16:10:06.926Z,101988.00
2022-10-19T16:12:33.862Z,101983.69
2022-10-19T16:15:00.754Z,101987.19
2022-10-19T16:17:27.821Z,101988.09
2022-10-19T16:19:54.711Z,101979.47
2022-10-19T16:22:21.715Z,101980.34
2022-10-19T16:24:48.673Z,101973.47
2022-10-19T16:27:16.391Z,101973.53
2022-10-19T16:29:44.708Z,101973.63
2022-10-19T16:32:11.644Z,101970.19
2022-10-19T16:34:38.671Z,101966.81
2022-10-19T16:37:07.201Z,101958.22
2022-10-19T16:39:34.688Z,101960.00
2022-10-19T16:42:01.605Z,101957.44
2022-10-19T16:44:28.678Z,101965.22
2022-10-19T16:46:59.323Z,101955.72
2022-10-19T16:49:26.745Z,101955.75
2022-10-19T16:51:56.498Z,101961.00
2022-10-19T16:54:26.798Z,101965.38
2022-10-19T16:56:55.719Z,101950.69
2022-10-19T16:59:22.938Z,101961.09
2022-10-19T17:01:50.079Z,101951.66
2022-10-19T17:04:20.253Z,101958.59
2022-10-19T17:06:47.443Z,101956.03
2022-10-19T17:09:41.393Z,101963.84
2022-10-19T17:12:02.257Z,101950.06
2022-10-19T17:14:29.182Z,101947.47
2022-10-19T17:16:56.100Z,101955.28
2022-10-19T17:19:23.345Z,101951.00
2022-10-19T17:21:50.433Z,101944.09
2022-10-19T17:24:21.964Z,101949.31
2022-10-19T17:26:51.271Z,101945.00
2022-10-19T17:29:19.683Z,101937.25
2022-10-19T17:31:48.084Z,101939.00
2022-10-19T17:34:15.122Z,101939.03
2022-10-19T17:36:46.047Z,101928.69
2022-10-19T17:39:25.662Z,101922.66
2022-10-19T17:42:01.456Z,101935.66
2022-10-19T17:44:30.704Z,101943.47
2022-10-19T17:46:58.051Z,101933.09
2022-10-19T17:49:25.227Z,101937.44
2022-10-19T17:51:53.668Z,101940.91
2022-10-19T17:54:20.835Z,101935.78
2022-10-19T17:56:47.859Z,101940.09
2022-10-19T17:59:15.161Z,101936.69
2022-10-19T18:01:42.222Z,101934.97
2022-10-19T18:04:09.123Z,101937.56
2022-10-19T18:06:37.223Z,101939.28
2022-10-19T18:09:08.659Z,101942.78
2022-10-19T18:11:40.234Z,101941.09
2022-10-19T18:14:09.072Z,101935.91
2022-10-19T18:16:39.438Z,101946.31
2022-10-19T18:19:08.053Z,101949.78
2022-10-19T18:21:39.868Z,101944.59
2022-10-19T18:24:14.280Z,101946.38
2022-10-19T18:26:42.755Z,101950.72
2022-10-19T18:29:19.248Z,101943.81
2022-10-19T18:31:51.470Z,101930.88
2022-10-19T18:34:21.113Z,101935.19
2022-10-19T18:36:48.432Z,101939.53
2022-10-19T18:39:15.446Z,101952.50
2022-10-19T18:41:42.484Z,101955.13
2022-10-19T18:44:13.145Z,101947.34
2022-10-19T18:46:40.704Z,101937.00
2022-10-19T18:49:08.442Z,101929.25
2022-10-19T18:51:35.662Z,101927.50
2022-10-19T18:54:02.862Z,101920.59
2022-10-19T18:56:29.947Z,101930.94
2022-10-19T18:58:57.402Z,101917.97
2022-10-19T19:01:29.219Z,101924.91
2022-10-19T19:04:04.466Z,101913.69
2022-10-19T19:06:32.776Z,101913.69
2022-10-19T19:09:01.200Z,101907.63
2022-10-19T19:11:32.993Z,101906.78
2022-10-19T19:14:17.577Z,101892.09
2022-10-19T19:16:45.685Z,101888.63
2022-10-19T19:19:14.362Z,101898.13
2022-10-19T19:21:44.149Z,101886.91
2022-10-19T19:24:18.093Z,101890.38
2022-10-19T19:26:49.409Z,101891.25
2022-10-19T19:29:17.771Z,101887.78
2022-10-19T19:31:44.838Z,101872.25
2022-10-19T19:34:12.170Z,101873.94
2022-10-19T19:36:46.451Z,101878.28
2022-10-19T19:39:19.384Z,101880.88
2022-10-19T19:41:47.061Z,101883.47
2022-10-19T19:44:14.035Z,101889.53
2022-10-19T19:46:40.924Z,101890.41
2022-10-19T19:49:08.266Z,101887.81
2022-10-19T19:51:35.757Z,101876.59
2022-10-19T19:54:03.159Z,101872.25
2022-10-19T19:56:30.325Z,101872.25
2022-10-19T19:58:59.224Z,101863.63
2022-10-19T20:01:26.679Z,101857.56
2022-10-19T20:03:54.148Z,101864.47
2022-10-19T20:06:25.034Z,101860.16
2022-10-19T20:08:54.869Z,101854.09
2022-10-19T20:11:22.888Z,101855.84
2022-10-19T20:13:50.482Z,101851.53
2022-10-19T20:16:22.704Z,101851.53
2022-10-19T20:18:55.647Z,101842.88
2022-10-19T20:21:25.282Z,101831.66
2022-10-19T20:23:52.366Z,101823.03
2022-10-19T20:26:24.278Z,101836.84
2022-10-19T20:28:52.162Z,101833.41
2022-10-19T20:33:57.864Z,101825.69
2022-10-19T20:36:39.058Z,101830.84
2022-10-19T20:39:06.167Z,101834.31
2022-10-19T20:41:37.713Z,101827.41
2022-10-19T20:44:06.597Z,101825.69
2022-10-19T20:46:33.782Z,101811.84
2022-10-19T20:49:08.609Z,101795.47
2022-10-19T20:51:40.493Z,101811.00
2022-10-19T20:54:16.249Z,101807.56
2022-10-19T20:56:46.543Z,101811.00
2022-10-19T20:59:19.679Z,101805.84
2022-10-19T21:01:51.408Z,101811.88
2022-10-19T21:04:20.645Z,101804.97
2022-10-19T21:07:02.429Z,101798.03
2022-10-19T21:09:31.798Z,101787.69
2022-10-19T21:12:05.399Z,101781.66
2022-10-19T21:14:33.208Z,101778.22
2022-10-19T21:17:00.524Z,101786.81
2022-10-19T21:19:33.187Z,101775.56
2022-10-19T21:22:08.984Z,101756.59
2022-10-19T21:24:39.542Z,101761.75
2022-10-19T21:27:09.824Z,101770.38
2022-10-19T21:29:39.976Z,101758.31
2022-10-19T21:32:10.151Z,101764.31
2022-10-19T21:34:41.058Z,101766.91
2022-10-19T21:37:08.737Z,101768.63
2022-10-19T21:39:36.591Z,101761.72
2022-10-19T21:42:06.280Z,101771.22
2022-10-19T21:44:33.235Z,101759.13
2022-10-19T21:47:08.882Z,101744.50
2022-10-19T21:49:45.887Z,101752.25
2022-10-19T21:52:16.200Z,101755.69
2022-10-19T21:54:53.629Z,101747.06
2022-10-19T21:57:20.478Z,101747.94
2022-10-19T21:59:50.966Z,101752.25
2022-10-19T22:02:23.682Z,101746.19
2022-10-19T22:04:50.783Z,101750.50
2022-10-19T22:07:17.689Z,101746.19
2022-10-19T22:09:44.595Z,101750.53
2022-10-19T22:12:11.474Z,101746.22
2022-10-19T22:15:03.592Z,101739.31
2022-10-19T22:17:33.081Z,101741.88
2022-10-19T22:20:00.917Z,101729.81
2022-10-19T22:22:32.035Z,101724.59
2022-10-19T22:25:03.663Z,101725.47
2022-10-19T22:27:32.074Z,101729.81
2022-10-19T22:29:59.822Z,101723.75
2022-10-19T22:32:26.727Z,101705.63
2022-10-19T22:34:58.999Z,101710.78
2022-10-19T22:37:29.118Z,101709.06
2022-10-19T22:40:12.623Z,101701.28
2022-10-19T22:42:39.639Z,101684.00
2022-10-19T22:45:22.852Z,101689.19
2022-10-19T22:47:49.768Z,101690.06
2022-10-19T22:50:28.474Z,101680.56
2022-10-19T22:53:02.462Z,101672.81
2022-10-19T22:55:31.951Z,101660.75
2022-10-19T22:58:02.097Z,101659.88
2022-10-19T23:00:34.203Z,101652.09
2022-10-19T23:03:01.113Z,101658.13
2022-10-19T23:05:33.227Z,101652.13
2022-10-19T23:08:05.412Z,101646.06
2022-10-19T23:10:35.089Z,101652.97
2022-10-19T23:13:09.828Z,101643.47
2022-10-19T23:15:46.338Z,101639.16
2022-10-19T23:18:18.037Z,101636.59
2022-10-19T23:21:14.328Z,101630.56
2022-10-19T23:23:48.425Z,101628.81
2022-10-19T23:26:23.114Z,101618.47
2022-10-19T23:28:54.703Z,101608.13
2022-10-19T23:31:36.639Z,101610.66
2022-10-19T23:34:03.568Z,101596.91
2022-10-19T23:36:30.822Z,101600.34
2022-10-19T23:39:00.516Z,101601.19
2022-10-19T23:41:51.155Z,101602.91
2022-10-19T23:44:18.028Z,101587.41
2022-10-19T23:46:48.221Z,101583.09
2022-10-19T23:49:16.531Z,101593.41
2022-10-19T23:51:44.718Z,101600.31
2022-10-19T23:54:13.652Z,101602.06
2022-10-19T23:56:42.712Z,101602.94
2022-10-19T23:59:16.593Z,101605.50
